Time;durP1;ratioP1;P1;durP2;ratioP2;P2;SDS_P1;SDS_P2;PMS_P1;PMS_P2;Temp;Humidity;BMP_temperature;BMP_pressure;BME280_temperature;BME280_humidity;BME280_pressure;Samples;Min_cycle;Max_cycle;Signal;HPM_P1;HPM_P2
2023/07/24 00:00:17;;;;;;;6.50;5.83;;;19.80;56.70;;;;;;5045775;28;20511;-78
2023/07/24 00:02:46;;;;;;;5.70;5.00;;;19.70;56.90;;;;;;5028139;28;20472;-78
2023/07/24 00:05:13;;;;;;;7.20;4.90;;;19.60;57.00;;;;;;5028298;28;20434;-78
2023/07/24 00:07:41;;;;;;;6.57;5.33;;;19.60;57.10;;;;;;5046066;28;20523;-77
2023/07/24 00:10:09;;;;;;;7.17;5.50;;;19.50;57.40;;;;;;5045392;28;20524;-78
2023/07/24 00:12:37;;;;;;;5.90;5.00;;;19.50;57.50;;;;;;5045575;28;20570;-76
2023/07/24 00:15:05;;;;;;;6.60;5.60;;;19.40;58.10;;;;;;5028421;28;20468;-77
2023/07/24 00:17:34;;;;;;;5.50;5.00;;;19.40;58.00;;;;;;5045309;28;20729;-77
2023/07/24 00:20:01;;;;;;;5.60;5.10;;;19.50;57.10;;;;;;5045299;28;20485;-77
2023/07/24 00:22:28;;;;;;;7.63;5.50;;;19.50;57.70;;;;;;5046008;28;20476;-78
2023/07/24 00:24:55;;;;;;;7.40;5.17;;;19.50;57.70;;;;;;5046114;28;20513;-79
2023/07/24 00:27:22;;;;;;;6.57;5.87;;;19.40;57.60;;;;;;5044337;28;20458;-77
2023/07/24 00:29:50;;;;;;;8.17;5.97;;;19.40;58.00;;;;;;5028458;28;20440;-79
2023/07/24 00:32:17;;;;;;;6.00;5.30;;;19.30;58.40;;;;;;5045977;28;20461;-77
2023/07/24 00:34:47;;;;;;;7.90;5.83;;;19.30;58.90;;;;;;5045187;28;20438;-77
2023/07/24 00:37:14;;;;;;;7.00;5.97;;;19.20;58.90;;;;;;5045175;28;20472;-76
2023/07/24 00:39:44;;;;;;;7.30;5.67;;;19.30;58.10;;;;;;5045244;28;20455;-78
2023/07/24 00:42:12;;;;;;;5.13;4.63;;;19.40;57.50;;;;;;5045324;28;20461;-79
2023/07/24 00:44:38;;;;;;;6.10;5.37;;;19.40;57.20;;;;;;5045041;28;20441;-77
2023/07/24 00:47:06;;;;;;;5.93;5.33;;;19.40;57.80;;;;;;5044230;28;20709;-77
2023/07/24 00:49:34;;;;;;;9.23;5.20;;;19.30;58.60;;;;;;5043389;28;20471;-76
2023/07/24 00:52:01;;;;;;;5.83;5.33;;;19.20;58.50;;;;;;5043056;28;20869;-77
2023/07/24 00:54:32;;;;;;;9.60;5.27;;;19.30;59.30;;;;;;5044726;28;20801;-77
2023/07/24 00:56:59;;;;;;;6.63;5.67;;;19.30;59.00;;;;;;5043468;28;20445;-78
2023/07/24 00:59:27;;;;;;;7.17;5.87;;;19.20;58.70;;;;;;5044111;28;20501;-77
2023/07/24 01:01:53;;;;;;;10.37;5.30;;;19.30;59.00;;;;;;5043597;28;20774;-76
2023/07/24 01:04:22;;;;;;;5.00;4.50;;;19.40;57.70;;;;;;5043372;28;20424;-78
2023/07/24 01:06:54;;;;;;;5.43;4.93;;;19.50;57.40;;;;;;5043622;28;20432;-78
2023/07/24 01:09:31;;;;;;;9.17;5.10;;;19.50;57.20;;;;;;5044526;28;20422;-78
2023/07/24 01:12:15;;;;;;;6.47;5.30;;;19.50;57.50;;;;;;5044317;28;20496;-77
2023/07/24 01:14:54;;;;;;;7.07;4.80;;;19.40;57.60;;;;;;5027128;28;20456;-78
2023/07/24 01:17:25;;;;;;;5.80;5.20;;;19.40;58.10;;;;;;5044333;28;20408;-77
2023/07/24 01:19:59;;;;;;;10.00;5.40;;;19.40;58.50;;;;;;5043184;28;20451;-79
2023/07/24 01:22:45;;;;;;;7.50;5.33;;;19.30;58.40;;;;;;5045213;28;20411;-76
2023/07/24 01:25:27;;;;;;;8.13;5.20;;;19.40;58.20;;;;;;5026819;28;20461;-78
2023/07/24 01:27:54;;;;;;;6.20;5.17;;;19.40;57.90;;;;;;5046090;28;20461;-78
2023/07/24 01:30:21;;;;;;;8.93;5.37;;;19.40;58.30;;;;;;5045800;28;20444;-78
2023/07/24 01:32:48;;;;;;;6.80;5.53;;;19.40;58.30;;;;;;5043777;28;20427;-78
2023/07/24 01:35:17;;;;;;;9.60;5.10;;;19.30;58.60;;;;;;5043779;28;20441;-78
2023/07/24 01:37:46;;;;;;;5.50;4.97;;;19.30;58.90;;;;;;5044331;28;20442;-77
2023/07/24 01:40:14;;;;;;;11.43;6.53;;;19.10;59.40;;;;;;5043932;28;20480;-77
2023/07/24 01:42:41;;;;;;;8.83;5.50;;;19.20;59.00;;;;;;5044031;28;20441;-78
2023/07/24 01:45:09;;;;;;;7.93;6.20;;;19.20;59.20;;;;;;5043349;28;20501;-76
2023/07/24 01:47:36;;;;;;;6.03;5.17;;;19.20;59.40;;;;;;5042718;28;20756;-78
2023/07/24 01:50:03;;;;;;;14.27;5.27;;;19.30;59.50;;;;;;5042935;28;20789;-76
2023/07/24 01:52:30;;;;;;;12.70;5.47;;;19.10;59.60;;;;;;5043073;28;20424;-77
2023/07/24 01:54:57;;;;;;;11.13;6.20;;;19.10;59.70;;;;;;5043375;28;20472;-76
2023/07/24 01:57:25;;;;;;;6.77;5.23;;;19.10;60.00;;;;;;5043583;28;20437;-76
2023/07/24 01:59:53;;;;;;;10.30;5.77;;;19.10;60.10;;;;;;5025781;28;20512;-78
2023/07/24 02:02:19;;;;;;;8.07;5.30;;;19.10;61.10;;;;;;5042995;28;20444;-80
2023/07/24 02:04:47;;;;;;;9.30;5.40;;;19.10;60.30;;;;;;5042024;28;20426;-77
2023/07/24 02:07:16;;;;;;;9.80;5.50;;;19.10;60.40;;;;;;5042822;28;20420;-80
2023/07/24 02:09:43;;;;;;;8.27;5.70;;;19.10;60.40;;;;;;5042552;28;20664;-77
2023/07/24 02:12:11;;;;;;;9.17;5.73;;;19.10;60.70;;;;;;5041809;28;20670;-77
2023/07/24 02:14:38;;;;;;;9.37;5.47;;;19.10;60.70;;;;;;5043015;28;20484;-78
2023/07/24 02:17:05;;;;;;;10.07;5.00;;;19.20;60.10;;;;;;5025701;28;20480;-77
2023/07/24 02:19:34;;;;;;;6.30;5.70;;;19.30;60.00;;;;;;5042712;28;20452;-78
2023/07/24 02:22:01;;;;;;;6.53;5.63;;;19.30;59.70;;;;;;5042850;28;20838;-79
2023/07/24 02:24:28;;;;;;;6.83;5.70;;;19.40;59.80;;;;;;5043914;28;20438;-78
2023/07/24 02:26:55;;;;;;;9.73;5.80;;;19.40;59.70;;;;;;5043548;28;20434;-79
2023/07/24 02:29:22;;;;;;;6.97;5.07;;;19.40;59.80;;;;;;5043108;28;20443;-77
2023/07/24 02:31:50;;;;;;;14.40;4.97;;;19.30;60.10;;;;;;5043647;28;20474;-80
2023/07/24 02:34:17;;;;;;;7.10;5.13;;;19.40;60.00;;;;;;5038216;28;20438;-78
2023/07/24 02:36:44;;;;;;;8.80;5.10;;;19.40;60.00;;;;;;5055228;28;20446;-77
2023/07/24 02:39:11;;;;;;;9.20;5.13;;;19.40;61.20;;;;;;5045123;28;20452;-81
2023/07/24 02:41:38;;;;;;;6.40;4.73;;;19.30;60.50;;;;;;5043124;28;20431;-77
2023/07/24 02:44:05;;;;;;;12.73;6.73;;;19.40;60.40;;;;;;5042649;28;20470;-79
2023/07/24 02:46:33;;;;;;;14.90;5.47;;;19.40;60.20;;;;;;5042797;28;20666;-76
2023/07/24 02:49:00;;;;;;;8.23;5.17;;;19.40;60.40;;;;;;5042528;28;20516;-79
2023/07/24 02:51:26;;;;;;;7.40;5.70;;;19.30;60.70;;;;;;5042558;28;20741;-79
2023/07/24 02:53:55;;;;;;;7.03;4.47;;;19.20;61.20;;;;;;5042654;28;20427;-79
2023/07/24 02:56:22;;;;;;;11.20;5.60;;;19.10;61.20;;;;;;5041555;28;20512;-78
2023/07/24 02:58:49;;;;;;;9.50;5.30;;;19.10;61.60;;;;;;5045316;28;20513;-78
2023/07/24 03:01:16;;;;;;;6.90;4.87;;;19.00;62.20;;;;;;5044238;28;20477;-76
2023/07/24 03:03:44;;;;;;;10.33;5.43;;;19.00;62.60;;;;;;5042686;28;20409;-76
2023/07/24 03:06:11;;;;;;;10.33;6.00;;;18.90;63.00;;;;;;5042456;28;20476;-80
2023/07/24 03:08:38;;;;;;;7.37;5.40;;;18.80;63.40;;;;;;5042438;28;20439;-78
2023/07/24 03:11:05;;;;;;;7.43;5.40;;;18.70;63.80;;;;;;5042390;28;20483;-76
2023/07/24 03:13:33;;;;;;;6.50;5.90;;;18.70;64.00;;;;;;5042636;28;20447;-78
2023/07/24 03:16:02;;;;;;;8.53;5.70;;;18.60;64.50;;;;;;5042995;28;20416;-77
2023/07/24 03:18:31;;;;;;;7.60;5.80;;;18.50;64.70;;;;;;5042887;28;20589;-76
2023/07/24 03:20:59;;;;;;;6.07;5.47;;;18.50;64.90;;;;;;5042596;28;20557;-77
2023/07/24 03:23:27;;;;;;;5.67;4.70;;;18.60;64.70;;;;;;5025821;28;20412;-78
2023/07/24 03:25:54;;;;;;;6.17;5.43;;;18.60;64.50;;;;;;5044131;28;20483;-78
2023/07/24 03:28:22;;;;;;;7.03;5.10;;;18.70;64.30;;;;;;5043159;28;20456;-79
2023/07/24 03:30:50;;;;;;;6.87;5.80;;;18.90;64.20;;;;;;5043009;28;20461;-77
2023/07/24 03:33:17;;;;;;;6.73;5.90;;;18.90;63.70;;;;;;5026003;28;20437;-77
2023/07/24 03:35:44;;;;;;;6.33;5.73;;;18.90;63.70;;;;;;5043138;28;20796;-78
2023/07/24 03:38:11;;;;;;;7.73;5.33;;;18.90;64.00;;;;;;5041691;28;20605;-76
2023/07/24 03:40:38;;;;;;;6.10;4.77;;;19.00;63.50;;;;;;5042575;28;20451;-77
2023/07/24 03:43:06;;;;;;;10.70;5.77;;;19.10;63.40;;;;;;5041869;28;20774;-77
2023/07/24 03:45:34;;;;;;;15.40;6.67;;;19.30;63.10;;;;;;5042655;28;20501;-77
2023/07/24 03:48:01;;;;;;;5.93;5.33;;;19.50;62.00;;;;;;5042235;28;20461;-76
2023/07/24 03:50:30;;;;;;;6.40;5.03;;;19.70;61.80;;;;;;5041520;28;20660;-78
2023/07/24 03:52:57;;;;;;;8.27;4.83;;;19.70;60.90;;;;;;5042293;28;20429;-77
2023/07/24 03:55:26;;;;;;;5.73;5.00;;;19.90;61.00;;;;;;5040740;28;20794;-78
2023/07/24 03:57:53;;;;;;;5.93;4.97;;;19.90;60.40;;;;;;5023988;28;20438;-77
2023/07/24 04:00:20;;;;;;;10.63;4.93;;;19.90;60.40;;;;;;5040123;28;20536;-77
2023/07/24 04:02:48;;;;;;;7.63;5.67;;;20.00;60.70;;;;;;5045424;28;20528;-78
2023/07/24 04:05:15;;;;;;;10.43;7.77;;;19.90;60.10;;;;;;5021330;28;20420;-83
2023/07/24 04:07:42;;;;;;;6.37;5.70;;;19.90;60.50;;;;;;5057446;28;20445;-78
2023/07/24 04:10:09;;;;;;;6.20;5.60;;;20.00;60.40;;;;;;5053081;28;20482;-77
2023/07/24 04:12:36;;;;;;;6.73;5.83;;;20.00;60.70;;;;;;5045569;28;20444;-81
2023/07/24 04:15:05;;;;;;;6.90;5.60;;;20.20;59.70;;;;;;5045477;28;20512;-80
2023/07/24 04:17:32;;;;;;;11.73;7.77;;;20.20;60.00;;;;;;5027694;28;20416;-78
2023/07/24 04:20:00;;;;;;;9.40;5.30;;;20.40;60.10;;;;;;5043523;28;20660;-79
2023/07/24 04:22:27;;;;;;;9.47;6.07;;;20.50;60.00;;;;;;5044726;28;20444;-79
2023/07/24 04:24:54;;;;;;;5.53;4.90;;;20.50;59.90;;;;;;5044862;28;20845;-76
2023/07/24 04:27:21;;;;;;;9.80;6.57;;;20.70;59.40;;;;;;5026287;28;20433;-78
2023/07/24 04:29:48;;;;;;;6.50;5.77;;;20.70;59.10;;;;;;5045090;28;20436;-78
2023/07/24 04:32:15;;;;;;;6.13;5.43;;;20.80;59.20;;;;;;5044920;28;20430;-77
2023/07/24 04:34:44;;;;;;;5.50;5.00;;;20.90;59.00;;;;;;5045295;28;20488;-76
2023/07/24 04:37:11;;;;;;;7.40;5.70;;;20.90;58.50;;;;;;5045328;28;20524;-79
2023/07/24 04:39:40;;;;;;;12.83;6.23;;;20.80;59.20;;;;;;5027507;28;20455;-77
2023/07/24 04:42:07;;;;;;;6.57;5.20;;;20.90;58.70;;;;;;5044876;28;20555;-76
2023/07/24 04:44:34;;;;;;;8.23;6.40;;;20.90;59.10;;;;;;5045094;28;20504;-78
2023/07/24 04:47:02;;;;;;;12.37;5.67;;;21.00;58.80;;;;;;5045328;28;20684;-77
2023/07/24 04:49:33;;;;;;;9.07;6.40;;;21.00;58.70;;;;;;5044371;28;20785;-78
2023/07/24 04:52:00;;;;;;;6.13;5.53;;;21.10;58.80;;;;;;5011021;28;20449;-78
2023/07/24 04:54:28;;;;;;;9.80;5.67;;;21.00;59.50;;;;;;5045047;28;20473;-78
2023/07/24 04:56:55;;;;;;;9.83;5.57;;;21.20;59.20;;;;;;5026680;28;20463;-78
2023/07/24 04:59:23;;;;;;;7.10;5.50;;;21.20;58.10;;;;;;5026414;28;20511;-76
2023/07/24 05:01:51;;;;;;;8.73;6.30;;;21.20;58.40;;;;;;5044433;28;20476;-75
2023/07/24 05:04:20;;;;;;;5.73;5.23;;;21.30;58.80;;;;;;5044282;28;20431;-78
2023/07/24 05:06:47;;;;;;;8.97;6.13;;;21.40;58.80;;;;;;5044382;28;20713;-77
2023/07/24 05:09:15;;;;;;;6.67;5.77;;;21.40;58.10;;;;;;5043786;28;20451;-77
2023/07/24 05:11:44;;;;;;;5.47;4.87;;;21.60;58.60;;;;;;5043088;28;20423;-78
2023/07/24 05:14:11;;;;;;;6.77;5.60;;;21.80;58.00;;;;;;5044860;28;20443;-80
2023/07/24 05:16:38;;;;;;;9.80;6.20;;;21.80;57.90;;;;;;5026536;28;20408;-79
2023/07/24 05:19:05;;;;;;;6.10;5.50;;;21.90;57.70;;;;;;5043630;28;20413;-77
2023/07/24 05:21:32;;;;;;;9.97;6.60;;;22.00;57.20;;;;;;5043667;28;20728;-78
2023/07/24 05:23:59;;;;;;;9.57;5.87;;;22.20;56.60;;;;;;5043833;28;20434;-76
2023/07/24 05:26:26;;;;;;;7.00;6.40;;;22.40;56.30;;;;;;5043694;28;20820;-76
2023/07/24 05:28:55;;;;;;;6.10;5.50;;;22.40;55.60;;;;;;5043650;28;20471;-77
2023/07/24 05:31:22;;;;;;;8.43;5.90;;;22.60;54.50;;;;;;5044137;28;20463;-77
2023/07/24 05:33:49;;;;;;;8.03;5.53;;;22.70;54.90;;;;;;5043472;28;20412;-78
2023/07/24 05:36:16;;;;;;;6.87;6.27;;;22.80;54.80;;;;;;5043606;28;20665;-79
2023/07/24 05:38:43;;;;;;;8.90;6.50;;;22.90;54.40;;;;;;5045180;28;20434;-79
2023/07/24 05:41:10;;;;;;;11.60;6.83;;;23.20;54.00;;;;;;5049161;28;20505;-80
2023/07/24 05:43:37;;;;;;;11.77;7.23;;;23.40;53.20;;;;;;5053650;28;20416;-79
2023/07/24 05:46:04;;;;;;;8.37;7.50;;;23.40;53.50;;;;;;5050972;28;20455;-76
2023/07/24 05:48:31;;;;;;;8.20;7.40;;;23.80;52.10;;;;;;5025833;28;20745;-76
2023/07/24 05:50:59;;;;;;;8.70;7.80;;;24.10;51.90;;;;;;5025444;28;20495;-75
2023/07/24 05:53:27;;;;;;;7.47;6.13;;;24.20;50.70;;;;;;5043116;28;20458;-77
2023/07/24 05:56:03;;;;;;;9.07;5.67;;;24.10;50.40;;;;;;5042831;28;20488;-76
2023/07/24 05:58:30;;;;;;;7.37;6.40;;;24.50;50.30;;;;;;5043821;28;20770;-78
2023/07/24 06:00:57;;;;;;;7.27;6.57;;;24.50;50.40;;;;;;5043499;28;20483;-78
2023/07/24 06:03:25;;;;;;;8.87;7.13;;;24.50;50.30;;;;;;5043178;28;20420;-77
2023/07/24 06:05:53;;;;;;;6.30;5.80;;;24.70;49.70;;;;;;5026522;28;20416;-76
2023/07/24 06:08:22;;;;;;;6.73;6.03;;;24.80;49.60;;;;;;5026027;28;20421;-77
2023/07/24 06:10:50;;;;;;;10.10;7.20;;;24.80;49.60;;;;;;5043122;28;20449;-78
2023/07/24 06:13:18;;;;;;;8.60;7.00;;;24.50;50.40;;;;;;5043773;28;20505;-78
2023/07/24 06:15:48;;;;;;;9.00;7.33;;;24.40;50.50;;;;;;5025317;28;20802;-77
2023/07/24 06:18:16;;;;;;;10.33;6.77;;;24.60;49.30;;;;;;5025968;28;20868;-76
2023/07/24 06:20:42;;;;;;;9.60;6.60;;;24.60;50.60;;;;;;5042097;28;20469;-77
2023/07/24 06:23:10;;;;;;;8.23;6.53;;;24.50;50.00;;;;;;5024999;28;20579;-78
2023/07/24 06:25:36;;;;;;;8.77;6.50;;;24.30;50.50;;;;;;5042442;28;20499;-77
2023/07/24 06:28:04;;;;;;;7.07;6.37;;;24.40;49.20;;;;;;5042559;28;20503;-77
2023/07/24 06:30:31;;;;;;;10.90;6.07;;;24.30;49.90;;;;;;5042618;28;20441;-76
2023/07/24 06:32:58;;;;;;;11.80;6.40;;;24.10;51.10;;;;;;5042811;28;20508;-77
2023/07/24 06:35:27;;;;;;;9.73;6.87;;;24.30;50.20;;;;;;5042856;28;20416;-76
2023/07/24 06:37:56;;;;;;;10.23;7.00;;;24.40;50.50;;;;;;5042871;28;20779;-78
2023/07/24 06:40:23;;;;;;;9.67;6.73;;;24.60;49.20;;;;;;5042164;28;20540;-78
2023/07/24 06:42:50;;;;;;;6.50;6.00;;;24.60;48.90;;;;;;5043036;28;20494;-77
2023/07/24 06:45:20;;;;;;;7.47;6.53;;;24.80;48.10;;;;;;5041975;28;20501;-79
2023/07/24 06:47:47;;;;;;;10.73;6.23;;;24.80;48.70;;;;;;5041449;28;20473;-78
2023/07/24 06:50:15;;;;;;;8.23;6.83;;;25.20;48.00;;;;;;5024902;28;20445;-75
2023/07/24 06:52:41;;;;;;;10.57;6.13;;;25.40;47.60;;;;;;5042004;28;20495;-75
2023/07/24 06:55:09;;;;;;;9.80;5.67;;;25.60;46.00;;;;;;5042007;28;20436;-77
2023/07/24 06:57:37;;;;;;;6.53;6.03;;;25.70;46.20;;;;;;5042379;28;20516;-82
2023/07/24 07:00:11;;;;;;;9.03;6.53;;;25.70;45.20;;;;;;5042250;28;20432;-76
2023/07/24 07:02:38;;;;;;;7.00;6.30;;;26.10;44.50;;;;;;5042408;28;20422;-77
2023/07/24 07:05:06;;;;;;;8.77;6.70;;;26.50;44.10;;;;;;5041613;28;20449;-75
2023/07/24 07:07:33;;;;;;;6.80;6.20;;;27.10;42.50;;;;;;5042171;28;20408;-76
2023/07/24 07:10:00;;;;;;;6.53;5.93;;;27.30;42.50;;;;;;5042667;28;20658;-75
2023/07/24 07:12:27;;;;;;;6.40;5.80;;;27.30;41.90;;;;;;5042631;28;20476;-76
2023/07/24 07:14:55;;;;;;;5.80;5.30;;;27.30;42.30;;;;;;5042060;28;20694;-79
2023/07/24 07:17:23;;;;;;;8.80;6.43;;;27.30;43.50;;;;;;5042043;28;20757;-76
2023/07/24 07:19:50;;;;;;;7.23;6.60;;;27.50;43.70;;;;;;5043416;28;20457;-76
2023/07/24 07:22:17;;;;;;;7.63;5.80;;;27.80;42.60;;;;;;5025227;28;20552;-76
2023/07/24 07:24:46;;;;;;;6.40;5.80;;;27.60;41.80;;;;;;5024800;28;20477;-77
2023/07/24 07:27:17;;;;;;;7.27;6.67;;;27.60;41.60;;;;;;5041940;28;20420;-77
2023/07/24 07:29:44;;;;;;;7.67;6.53;;;27.80;42.40;;;;;;5024128;28;20682;-77
2023/07/24 07:32:11;;;;;;;7.67;5.90;;;28.30;42.00;;;;;;5041976;28;20465;-76
2023/07/24 07:34:38;;;;;;;6.30;5.70;;;29.00;40.50;;;;;;5041645;28;20501;-77
2023/07/24 07:37:06;;;;;;;6.87;6.27;;;30.20;37.80;;;;;;5044963;28;20460;-76
2023/07/24 07:39:34;;;;;;;9.40;6.47;;;31.40;35.60;;;;;;5045512;28;20469;-76
2023/07/24 07:42:01;;;;;;;7.50;6.87;;;32.40;33.90;;;;;;5027734;28;20477;-79
2023/07/24 07:44:43;;;;;;;6.47;5.87;;;32.70;33.10;;;;;;5044556;28;20754;-76
2023/07/24 07:47:10;;;;;;;8.80;6.93;;;32.70;32.80;;;;;;5045872;28;20448;-77
2023/07/24 07:49:38;;;;;;;6.90;6.40;;;33.20;31.70;;;;;;5045322;28;20518;-76
2023/07/24 07:52:09;;;;;;;8.73;5.97;;;33.50;31.20;;;;;;5028650;28;20481;-77
2023/07/24 07:54:36;;;;;;;6.13;5.73;;;34.20;31.20;;;;;;5045656;28;20545;-76
2023/07/24 07:57:04;;;;;;;7.83;7.23;;;33.90;29.90;;;;;;5044864;28;20433;-78
2023/07/24 07:59:33;;;;;;;7.20;6.60;;;34.50;29.40;;;;;;5045108;28;20470;-78
2023/07/24 08:02:03;;;;;;;7.53;6.80;;;34.90;28.00;;;;;;5044352;28;20801;-77
2023/07/24 08:04:30;;;;;;;8.17;7.57;;;35.50;27.40;;;;;;5045142;28;21050;-80
2023/07/24 08:06:57;;;;;;;7.60;7.00;;;35.70;27.40;;;;;;5045299;28;20563;-77
2023/07/24 08:09:24;;;;;;;7.53;6.80;;;35.10;27.10;;;;;;5044631;28;20434;-76
2023/07/24 08:11:52;;;;;;;6.87;6.27;;;34.50;28.20;;;;;;5046634;28;20476;-77
2023/07/24 08:14:20;;;;;;;8.03;7.43;;;34.00;29.90;;;;;;5046241;28;20440;-75
2023/07/24 08:16:50;;;;;;;7.90;7.30;;;34.20;28.90;;;;;;5044073;28;20491;-79
2023/07/24 08:19:17;;;;;;;9.07;7.63;;;34.00;29.20;;;;;;5043567;28;20437;-78
2023/07/24 08:21:46;;;;;;;7.83;7.30;;;33.80;29.70;;;;;;5043788;28;20706;-77
2023/07/24 08:24:13;;;;;;;8.53;7.70;;;33.60;30.00;;;;;;5026600;28;20499;-78
2023/07/24 08:26:40;;;;;;;9.53;8.20;;;33.60;29.70;;;;;;5043798;28;20773;-76
2023/07/24 08:29:07;;;;;;;8.13;7.43;;;32.80;30.20;;;;;;5025823;28;20429;-76
2023/07/24 08:31:34;;;;;;;9.13;8.40;;;32.10;32.30;;;;;;5025991;28;20689;-77
2023/07/24 08:34:01;;;;;;;8.53;7.70;;;32.10;32.20;;;;;;5043488;28;20506;-80
2023/07/24 08:36:29;;;;;;;9.03;8.30;;;31.90;32.90;;;;;;5043949;28;20442;-79
2023/07/24 08:38:56;;;;;;;10.77;8.40;;;32.40;31.90;;;;;;5043694;28;20437;-76
2023/07/24 08:41:24;;;;;;;8.00;7.30;;;32.60;31.30;;;;;;5043854;28;20504;-78
2023/07/24 08:43:53;;;;;;;8.47;7.77;;;33.10;31.10;;;;;;5043077;28;20470;-80
2023/07/24 08:46:21;;;;;;;8.80;7.93;;;34.40;29.70;;;;;;5050018;28;20453;-79
2023/07/24 08:48:49;;;;;;;8.53;7.73;;;35.20;28.30;;;;;;5055967;28;20575;-79
2023/07/24 08:51:18;;;;;;;8.73;8.00;;;35.50;29.40;;;;;;5036769;28;20804;-80
2023/07/24 08:53:47;;;;;;;9.17;8.30;;;36.20;27.90;;;;;;5044177;28;20450;-79
2023/07/24 08:56:14;;;;;;;9.17;7.30;;;36.00;27.40;;;;;;5043714;28;20446;-77
2023/07/24 08:58:42;;;;;;;8.13;7.53;;;36.40;26.80;;;;;;5044593;28;20441;-76
2023/07/24 09:01:09;;;;;;;8.40;7.60;;;36.40;27.00;;;;;;5043329;28;20647;-78
2023/07/24 09:03:37;;;;;;;7.70;7.00;;;35.60;28.20;;;;;;5043650;28;20556;-79
2023/07/24 09:06:06;;;;;;;7.97;7.30;;;35.80;27.80;;;;;;5042593;28;20448;-79
2023/07/24 09:08:35;;;;;;;7.83;7.10;;;36.10;27.40;;;;;;5043705;28;20506;-79
2023/07/24 09:11:04;;;;;;;7.90;7.37;;;36.00;28.10;;;;;;5010118;28;20458;-78
2023/07/24 09:13:32;;;;;;;8.00;6.97;;;35.90;27.50;;;;;;5043482;28;20505;-80
2023/07/24 09:15:59;;;;;;;8.10;7.40;;;35.80;28.00;;;;;;5043870;28;20493;-78
2023/07/24 09:18:26;;;;;;;7.73;7.07;;;35.60;27.60;;;;;;5042567;28;20518;-77
2023/07/24 09:20:53;;;;;;;8.83;8.03;;;35.20;28.40;;;;;;5043366;28;20587;-79
2023/07/24 09:23:30;;;;;;;8.13;7.33;;;34.50;28.90;;;;;;5043265;28;20443;-77
2023/07/24 09:25:58;;;;;;;9.20;7.83;;;34.10;29.70;;;;;;5043512;28;20457;-77
2023/07/24 09:28:25;;;;;;;7.37;6.70;;;33.50;29.80;;;;;;5043290;28;20441;-76
2023/07/24 09:30:57;;;;;;;7.30;6.70;;;33.80;30.00;;;;;;5042847;28;20674;-78
2023/07/24 09:33:35;;;;;;;6.37;5.70;;;33.20;30.30;;;;;;5025043;28;20722;-78
2023/07/24 09:36:04;;;;;;;7.70;7.00;;;33.10;31.30;;;;;;5042573;28;20436;-77
2023/07/24 09:38:31;;;;;;;7.83;7.13;;;32.90;31.60;;;;;;5042653;28;20472;-76
2023/07/24 09:41:00;;;;;;;8.30;7.10;;;32.50;32.20;;;;;;5025555;28;20483;-78
2023/07/24 09:43:29;;;;;;;7.73;7.07;;;32.50;32.60;;;;;;5026671;28;20477;-78
2023/07/24 09:46:06;;;;;;;7.70;7.00;;;31.90;32.70;;;;;;5043707;28;20484;-76
2023/07/24 09:48:35;;;;;;;8.03;7.23;;;31.40;33.50;;;;;;5026144;28;20437;-78
2023/07/24 09:51:13;;;;;;;8.50;7.73;;;31.20;34.10;;;;;;5042836;28;20492;-77
2023/07/24 09:54:15;;;;;;;6.87;6.30;;;31.90;33.20;;;;;;5043638;28;20457;-80
2023/07/24 09:56:42;;;;;;;7.23;6.53;;;32.30;32.10;;;;;;5042752;28;20449;-77
2023/07/24 09:59:25;;;;;;;7.83;7.23;;;32.40;31.50;;;;;;5041819;28;20437;-79
2023/07/24 10:01:53;;;;;;;7.40;6.70;;;32.80;31.20;;;;;;5024679;28;20484;-77
2023/07/24 10:04:20;;;;;;;8.13;7.33;;;32.80;31.80;;;;;;5042056;28;20520;-77
2023/07/24 10:06:48;;;;;;;8.50;7.10;;;32.90;31.70;;;;;;5024695;28;20496;-79
2023/07/24 10:09:16;;;;;;;11.07;7.63;;;33.00;31.00;;;;;;5042081;28;20504;-79
2023/07/24 10:11:43;;;;;;;12.30;8.27;;;32.70;32.20;;;;;;5041993;28;20517;-77
2023/07/24 10:14:10;;;;;;;8.33;7.63;;;32.90;30.90;;;;;;5042052;28;20441;-76
2023/07/24 10:16:37;;;;;;;7.90;7.30;;;32.60;31.90;;;;;;5024417;28;20465;-76
2023/07/24 10:19:16;;;;;;;10.03;7.37;;;32.20;32.10;;;;;;5041515;28;20420;-76
2023/07/24 10:21:51;;;;;;;10.73;7.30;;;32.00;32.90;;;;;;5041367;28;20687;-78
2023/07/24 10:24:20;;;;;;;8.93;8.03;;;32.10;32.50;;;;;;5041710;28;20429;-77
2023/07/24 10:27:07;;;;;;;9.90;8.50;;;32.20;32.60;;;;;;5042512;28;20430;-77
2023/07/24 10:29:36;;;;;;;8.03;7.43;;;32.10;32.80;;;;;;5039882;28;20473;-76
2023/07/24 10:32:03;;;;;;;8.23;7.50;;;32.10;32.90;;;;;;5041948;28;20466;-77
2023/07/24 10:34:40;;;;;;;9.23;8.37;;;32.10;33.10;;;;;;5041529;28;20501;-79
2023/07/24 10:37:11;;;;;;;7.80;7.20;;;31.80;33.40;;;;;;5042153;28;20618;-79
2023/07/24 10:39:43;;;;;;;8.37;7.67;;;31.90;33.00;;;;;;5041844;28;20461;-77
2023/07/24 10:42:11;;;;;;;8.87;7.97;;;32.10;33.30;;;;;;5041285;28;20477;-76
2023/07/24 10:44:38;;;;;;;7.97;7.17;;;31.80;34.00;;;;;;5041415;28;20468;-79
2023/07/24 10:47:06;;;;;;;10.03;8.50;;;31.90;34.00;;;;;;5041420;28;20492;-78
2023/07/24 10:49:34;;;;;;;9.10;8.30;;;31.80;34.70;;;;;;5041537;28;20473;-78
2023/07/24 10:52:01;;;;;;;8.03;7.13;;;32.10;34.70;;;;;;5041548;28;20488;-77
2023/07/24 10:54:28;;;;;;;8.00;7.20;;;31.80;34.80;;;;;;5041514;28;20438;-76
2023/07/24 10:57:00;;;;;;;8.60;7.80;;;31.80;34.50;;;;;;5041762;28;20466;-79
2023/07/24 10:59:40;;;;;;;8.23;7.63;;;31.60;34.20;;;;;;5041117;28;20769;-76
2023/07/24 11:02:07;;;;;;;8.63;7.73;;;31.10;35.60;;;;;;5040876;28;20564;-77
2023/07/24 11:04:35;;;;;;;10.07;9.07;;;31.00;35.80;;;;;;5040831;28;20434;-76
2023/07/24 11:07:02;;;;;;;15.23;8.63;;;31.30;35.80;;;;;;5041055;28;20509;-76
2023/07/24 11:09:37;;;;;;;9.10;8.20;;;31.80;34.90;;;;;;5040563;28;20766;-77
2023/07/24 11:12:14;;;;;;;8.17;7.47;;;32.40;34.70;;;;;;5041041;28;20626;-76
2023/07/24 11:14:54;;;;;;;7.87;7.17;;;32.30;33.40;;;;;;5023505;28;20492;-76
2023/07/24 11:17:22;;;;;;;9.17;8.40;;;32.60;34.10;;;;;;5027131;28;20418;-79
2023/07/24 11:19:48;;;;;;;8.63;7.63;;;32.30;35.30;;;;;;5023455;28;20441;-76
2023/07/24 11:22:21;;;;;;;8.37;7.60;;;31.40;35.40;;;;;;5040829;28;20810;-79
2023/07/24 11:24:49;;;;;;;8.23;7.47;;;31.50;36.00;;;;;;5039319;28;20488;-80
2023/07/24 11:27:17;;;;;;;9.10;8.37;;;32.00;35.60;;;;;;5023325;28;20441;-79
2023/07/24 11:29:49;;;;;;;8.13;7.33;;;31.50;35.90;;;;;;5039748;28;20462;-77
2023/07/24 11:32:22;;;;;;;7.90;7.20;;;31.30;35.90;;;;;;5041362;28;20464;-76
2023/07/24 11:34:51;;;;;;;9.00;8.10;;;31.60;36.30;;;;;;5040914;28;20449;-77
2023/07/24 11:37:18;;;;;;;9.80;9.00;;;31.50;35.80;;;;;;5041171;28;20437;-78
2023/07/24 11:40:04;;;;;;;9.93;7.13;;;31.80;35.70;;;;;;5040958;28;20746;-77
2023/07/24 11:42:31;;;;;;;8.07;7.30;;;32.20;35.20;;;;;;5023593;28;20508;-76
2023/07/24 11:45:01;;;;;;;7.90;7.20;;;32.40;35.10;;;;;;5041462;28;20504;-77
2023/07/24 11:47:29;;;;;;;9.00;8.20;;;32.20;35.50;;;;;;5039850;28;20461;-77
2023/07/24 11:50:00;;;;;;;9.10;8.20;;;32.30;34.40;;;;;;5041627;28;20434;-79
2023/07/24 11:52:48;;;;;;;9.10;8.30;;;32.60;34.40;;;;;;5052442;28;20473;-79
2023/07/24 11:55:30;;;;;;;8.40;7.60;;;32.00;34.80;;;;;;5035872;28;20474;-78
2023/07/24 11:58:01;;;;;;;8.10;7.50;;;31.80;34.90;;;;;;5041178;28;20469;-79
2023/07/24 12:00:32;;;;;;;8.67;7.80;;;32.10;34.50;;;;;;5040979;28;20731;-79
2023/07/24 12:03:04;;;;;;;8.57;7.87;;;32.10;35.10;;;;;;5040804;28;20480;-78
2023/07/24 12:05:42;;;;;;;12.27;8.60;;;32.00;34.90;;;;;;5041132;28;20441;-78
2023/07/24 12:08:13;;;;;;;9.30;8.50;;;32.00;34.20;;;;;;5040772;28;20476;-78
2023/07/24 12:10:41;;;;;;;11.07;9.80;;;32.60;34.40;;;;;;5040522;28;20438;-76
2023/07/24 12:13:08;;;;;;;10.40;9.40;;;32.40;34.30;;;;;;5041064;28;20613;-77
2023/07/24 12:15:37;;;;;;;9.40;8.40;;;32.20;34.20;;;;;;5040863;28;20738;-76
2023/07/24 12:18:05;;;;;;;10.70;9.10;;;32.20;34.90;;;;;;5040790;28;20441;-78
2023/07/24 12:20:34;;;;;;;11.10;10.03;;;32.30;34.70;;;;;;5040290;28;20501;-76
2023/07/24 12:23:00;;;;;;;10.90;9.90;;;32.10;34.40;;;;;;5042074;28;20844;-77
2023/07/24 12:25:28;;;;;;;12.20;9.80;;;32.10;34.90;;;;;;5044244;28;20446;-78
2023/07/24 12:27:55;;;;;;;10.90;10.00;;;32.40;34.20;;;;;;5044065;28;20534;-78
2023/07/24 12:30:22;;;;;;;10.47;9.33;;;32.30;34.50;;;;;;5043228;28;20707;-76
2023/07/24 12:32:49;;;;;;;10.00;9.10;;;32.40;33.90;;;;;;5042010;28;20737;-77
2023/07/24 12:35:17;;;;;;;12.83;10.90;;;32.30;33.80;;;;;;5043329;28;20445;-77
2023/07/24 12:37:45;;;;;;;13.07;11.13;;;32.10;34.30;;;;;;5043369;28;20434;-78
2023/07/24 12:40:13;;;;;;;11.27;10.03;;;32.00;34.40;;;;;;5045042;28;20476;-78
2023/07/24 12:42:40;;;;;;;11.77;10.70;;;31.80;34.40;;;;;;5043246;28;20528;-78
2023/07/24 12:45:08;;;;;;;11.47;10.27;;;31.80;35.20;;;;;;5043342;28;20441;-77
2023/07/24 12:47:35;;;;;;;15.43;10.77;;;31.90;35.40;;;;;;5025861;28;20448;-78
2023/07/24 12:50:02;;;;;;;10.50;9.53;;;31.70;35.60;;;;;;5044331;28;20616;-77
2023/07/24 12:52:33;;;;;;;12.00;10.80;;;32.00;36.60;;;;;;5043465;28;20642;-76